createdAt,value
2023-03-05T00:04:32.551Z,2.81
2023-03-05T00:09:34.978Z,2.80
2023-03-05T00:14:36.787Z,2.74
2023-03-05T00:19:37.543Z,2.69
2023-03-05T00:24:38.456Z,2.67
2023-03-05T00:29:39.277Z,2.61
2023-03-05T00:34:40.194Z,2.60
2023-03-05T00:39:41.181Z,2.71
2023-03-05T00:44:42.167Z,2.67
2023-03-05T00:49:43.021Z,2.58
2023-03-05T00:54:44.223Z,2.68
2023-03-05T00:59:45.052Z,2.70
2023-03-05T01:04:46.514Z,2.69
2023-03-05T01:09:47.953Z,2.67
2023-03-05T01:14:49.099Z,2.70
2023-03-05T01:19:49.900Z,2.72
2023-03-05T01:24:50.852Z,2.68
2023-03-05T01:29:51.630Z,2.63
2023-03-05T01:34:52.469Z,2.60
2023-03-05T01:39:53.320Z,2.64
2023-03-05T01:45:11.900Z,2.59
2023-03-05T01:50:16.761Z,2.57
2023-03-05T01:55:21.617Z,2.52
2023-03-05T02:00:27.857Z,2.61
2023-03-05T02:05:31.908Z,2.45
2023-03-05T02:10:42.054Z,2.40
2023-03-05T02:15:44.004Z,2.31
2023-03-05T02:21:10.461Z,2.35
2023-03-05T02:26:11.308Z,2.38
2023-03-05T02:31:18.378Z,2.41
2023-03-05T02:36:19.708Z,2.34
2023-03-05T02:41:20.661Z,2.24
2023-03-05T02:46:22.683Z,2.25
2023-03-05T02:51:23.478Z,2.15
2023-03-05T02:56:24.471Z,2.22
2023-03-05T03:01:27.660Z,2.22
2023-03-05T03:06:28.717Z,2.21
2023-03-05T03:11:29.503Z,2.19
2023-03-05T03:16:30.596Z,2.10
2023-03-05T03:21:31.667Z,1.98
2023-03-05T03:26:32.494Z,1.95
2023-03-05T03:31:34.073Z,1.93
2023-03-05T03:36:34.851Z,1.98
2023-03-05T03:41:37.070Z,2.05
2023-03-05T03:46:38.651Z,1.97
2023-03-05T03:51:39.414Z,1.99
2023-03-05T03:56:40.484Z,1.93
2023-03-05T04:01:41.301Z,1.94
2023-03-05T04:06:42.796Z,1.82
2023-03-05T04:11:43.573Z,1.82
2023-03-05T04:16:44.410Z,1.81
2023-03-05T04:21:45.375Z,1.76
2023-03-05T04:26:46.208Z,1.76
2023-03-05T04:31:46.941Z,1.74
2023-03-05T04:36:47.780Z,1.75
2023-03-05T04:41:48.656Z,1.74
2023-03-05T04:46:49.612Z,1.66
2023-03-05T04:51:50.364Z,1.66
2023-03-05T04:56:51.124Z,1.64
2023-03-05T05:01:52.036Z,1.57
2023-03-05T05:06:55.604Z,1.64
2023-03-05T05:11:56.367Z,1.50
2023-03-05T05:16:57.856Z,1.58
2023-03-05T05:21:58.878Z,1.54
2023-03-05T05:26:59.976Z,1.46
2023-03-05T05:32:00.838Z,1.45
2023-03-05T05:37:01.684Z,1.55
2023-03-05T05:42:02.556Z,1.54
2023-03-05T05:47:03.555Z,1.63
2023-03-05T05:52:05.017Z,1.62
2023-03-05T05:57:06.404Z,1.57
2023-03-05T06:02:07.540Z,1.55
2023-03-05T06:07:08.374Z,1.53
2023-03-05T06:12:09.135Z,1.52
2023-03-05T06:17:12.889Z,1.46
2023-03-05T06:22:15.717Z,1.49
2023-03-05T06:27:16.887Z,1.35
2023-03-05T06:32:17.716Z,1.36
2023-03-05T06:37:18.755Z,1.32
2023-03-05T06:42:19.538Z,1.20
2023-03-05T06:47:20.474Z,1.17
2023-03-05T06:52:21.395Z,1.13
2023-03-05T06:57:22.428Z,1.29
2023-03-05T07:02:23.333Z,1.20
2023-03-05T07:07:24.209Z,1.28
2023-03-05T07:12:25.060Z,1.30
2023-03-05T07:17:26.936Z,1.35
2023-03-05T07:22:27.661Z,1.36
2023-03-05T07:27:28.912Z,1.34
2023-03-05T07:32:29.790Z,1.40
2023-03-05T07:37:31.003Z,1.55
2023-03-05T07:42:32.069Z,1.58
2023-03-05T07:47:42.693Z,1.65
2023-03-05T07:52:43.460Z,1.70
2023-03-05T07:57:44.349Z,1.68
2023-03-05T08:02:45.461Z,1.73
2023-03-05T08:07:46.346Z,1.85
2023-03-05T08:12:47.143Z,1.92
2023-03-05T08:17:48.132Z,2.09
2023-03-05T08:22:48.932Z,2.03
2023-03-05T08:27:49.855Z,2.05
2023-03-05T08:32:51.339Z,2.01
2023-03-05T08:37:52.157Z,1.99
2023-03-05T08:42:52.889Z,2.12
2023-03-05T08:47:55.470Z,2.19
2023-03-05T08:52:56.287Z,2.17
2023-03-05T08:57:57.090Z,2.14
2023-03-05T09:02:57.900Z,2.15
2023-03-05T09:07:58.755Z,2.14
2023-03-05T09:12:59.609Z,2.06
2023-03-05T09:18:00.951Z,2.14
2023-03-05T09:23:02.041Z,2.16
2023-03-05T09:28:03.071Z,2.18
2023-03-05T09:33:04.694Z,2.30
2023-03-05T09:38:05.633Z,2.24
2023-03-05T09:43:35.875Z,2.18
2023-03-05T09:48:50.710Z,2.19
2023-03-05T09:54:18.133Z,2.23
2023-03-05T09:59:43.949Z,2.07
2023-03-05T10:04:51.689Z,1.90
2023-03-05T10:09:59.610Z,2.04
2023-03-05T10:15:02.388Z,2.07
2023-03-05T10:20:26.887Z,2.12
2023-03-05T10:26:07.580Z,2.21
2023-03-05T10:31:29.708Z,2.08
2023-03-05T10:39:40.457Z,2.16
2023-03-05T10:44:48.427Z,2.23
2023-03-05T10:49:52.366Z,2.30
2023-03-05T10:54:53.245Z,2.38
2023-03-05T11:00:16.553Z,2.44
2023-03-05T11:05:43.787Z,2.29
2023-03-05T11:10:44.879Z,2.04
2023-03-05T11:15:59.292Z,1.93
2023-03-05T11:21:27.075Z,1.79
2023-03-05T11:26:28.180Z,1.82
2023-03-05T11:31:32.257Z,1.98
2023-03-05T11:36:41.919Z,2.00
2023-03-05T11:42:44.366Z,2.03
2023-03-05T11:47:49.418Z,1.95
2023-03-05T11:53:23.172Z,2.01
2023-03-05T12:00:01.103Z,2.12
2023-03-05T12:05:03.672Z,2.27
2023-03-05T12:10:05.137Z,2.43
2023-03-05T12:16:09.511Z,2.44
2023-03-05T12:23:02.128Z,2.56
2023-03-05T12:28:03.707Z,3.06
2023-03-05T12:33:28.376Z,3.48
2023-03-05T12:38:31.524Z,3.58
2023-03-05T12:43:32.958Z,3.52
2023-03-05T12:48:42.529Z,3.42
2023-03-05T12:53:43.357Z,3.50
2023-03-05T12:58:48.752Z,3.78
2023-03-05T13:03:55.580Z,4.17
2023-03-05T13:08:58.629Z,4.51
2023-03-05T13:14:01.337Z,4.38
2023-03-05T13:19:02.745Z,4.45
2023-03-05T13:24:03.755Z,4.25
2023-03-05T13:29:16.006Z,4.09
2023-03-05T13:34:46.611Z,3.98
2023-03-05T13:39:51.582Z,3.97
2023-03-05T13:44:54.502Z,3.82
2023-03-05T13:50:06.809Z,3.80
2023-03-05T13:55:15.774Z,3.73
2023-03-05T14:00:35.002Z,3.72
2023-03-05T14:05:36.439Z,3.46
2023-03-05T14:10:38.458Z,3.41
2023-03-05T14:15:39.807Z,3.37
2023-03-05T14:21:09.733Z,3.14
2023-03-05T14:26:29.621Z,3.21
2023-03-05T14:31:35.961Z,3.05
2023-03-05T14:36:38.286Z,3.12
2023-03-05T14:41:40.549Z,3.22
2023-03-05T14:46:42.770Z,3.14
2023-03-05T14:51:45.517Z,3.18
2023-03-05T14:56:47.220Z,3.11
2023-03-05T15:01:50.071Z,3.10
2023-03-05T15:06:52.481Z,3.09
2023-03-05T15:11:53.263Z,3.15
2023-03-05T15:16:54.252Z,3.02
2023-03-05T15:21:55.006Z,3.11
2023-03-05T15:26:55.844Z,3.23
2023-03-05T15:31:56.587Z,3.20
2023-03-05T15:36:57.741Z,3.14
2023-03-05T15:41:58.884Z,3.09
2023-03-05T15:47:00.326Z,3.13
2023-03-05T15:52:01.788Z,3.03
2023-03-05T15:57:07.155Z,2.97
2023-03-05T16:02:07.914Z,3.00
2023-03-05T16:07:10.009Z,2.97
2023-03-05T16:12:17.219Z,2.85
2023-03-05T16:17:20.126Z,2.89
2023-03-05T16:22:20.928Z,2.88
2023-03-05T16:27:21.786Z,2.90
2023-03-05T16:32:23.231Z,2.93
2023-03-05T16:37:25.099Z,2.93
2023-03-05T16:42:25.916Z,2.87
2023-03-05T16:47:27.009Z,2.83
2023-03-05T16:52:28.676Z,2.75
2023-03-05T16:57:29.574Z,2.81
2023-03-05T17:02:30.557Z,2.85
2023-03-05T17:07:31.493Z,2.94
2023-03-05T17:12:32.286Z,2.87
2023-03-05T17:17:33.139Z,2.84
2023-03-05T17:22:34.489Z,2.85
2023-03-05T17:27:37.148Z,2.94
2023-03-05T17:32:38.429Z,2.99
2023-03-05T17:37:39.462Z,2.94
2023-03-05T17:42:40.273Z,2.86
2023-03-05T17:47:41.056Z,2.94
2023-03-05T17:52:41.815Z,2.65
2023-03-05T17:57:43.954Z,2.60
2023-03-05T18:02:45.097Z,2.54
2023-03-05T18:07:46.021Z,2.62
2023-03-05T18:12:47.076Z,2.59
2023-03-05T18:17:47.932Z,2.51
2023-03-05T18:22:48.765Z,2.39
2023-03-05T18:27:52.477Z,2.38
2023-03-05T18:32:53.846Z,2.33
2023-03-05T18:37:55.623Z,2.34
2023-03-05T18:42:59.525Z,2.36
2023-03-05T18:48:00.574Z,2.38
2023-03-05T18:53:01.436Z,2.32
2023-03-05T18:58:02.599Z,2.42
2023-03-05T19:03:04.946Z,2.44
2023-03-05T19:08:07.043Z,2.44
2023-03-05T19:13:57.660Z,2.45
2023-03-05T19:19:15.038Z,2.38
2023-03-05T19:24:16.944Z,2.30
2023-03-05T19:29:17.727Z,2.42
2023-03-05T19:34:19.863Z,2.26
2023-03-05T19:39:20.841Z,2.20
2023-03-05T19:44:22.767Z,2.24
2023-03-05T19:49:24.108Z,2.21
2023-03-05T19:54:25.130Z,2.15
2023-03-05T19:59:26.176Z,2.14
2023-03-05T20:04:27.302Z,2.09
2023-03-05T20:09:28.258Z,2.08
2023-03-05T20:14:29.079Z,2.11
2023-03-05T20:19:29.865Z,2.09
2023-03-05T20:24:30.859Z,2.03
2023-03-05T20:29:31.847Z,1.97
2023-03-05T20:34:32.639Z,2.00
2023-03-05T20:39:33.680Z,2.05
2023-03-05T20:44:34.580Z,2.05
2023-03-05T20:49:35.337Z,2.00
2023-03-05T20:54:36.311Z,2.02
2023-03-05T20:59:37.148Z,1.97
2023-03-05T21:04:37.939Z,1.97
2023-03-05T21:09:38.887Z,2.05
2023-03-05T21:14:40.033Z,1.92
2023-03-05T21:19:40.992Z,1.92
2023-03-05T21:24:54.707Z,1.85
2023-03-05T21:29:55.751Z,1.81
2023-03-05T21:34:56.991Z,1.77
2023-03-05T21:39:58.717Z,1.79
2023-03-05T21:44:59.480Z,1.84
2023-03-05T21:50:00.892Z,1.83
2023-03-05T21:55:01.692Z,1.78
2023-03-05T22:00:05.407Z,1.81
2023-03-05T22:05:14.718Z,1.71
2023-03-05T22:10:18.054Z,1.74
2023-03-05T22:15:19.240Z,1.69
2023-03-05T22:20:20.098Z,1.74
2023-03-05T22:25:20.861Z,1.68
2023-03-05T22:30:21.861Z,1.72
2023-03-05T22:35:22.993Z,1.73
2023-03-05T22:40:24.036Z,1.75
2023-03-05T22:45:24.812Z,1.67
2023-03-05T22:50:26.188Z,1.65
2023-03-05T22:55:26.958Z,1.68
2023-03-05T23:00:28.063Z,1.68
2023-03-05T23:05:28.855Z,1.69
2023-03-05T23:10:29.916Z,1.63
2023-03-05T23:15:33.730Z,1.62
2023-03-05T23:20:36.155Z,1.68
2023-03-05T23:25:36.941Z,1.68
2023-03-05T23:30:38.740Z,1.71
2023-03-05T23:35:41.972Z,1.77
2023-03-05T23:40:45.318Z,1.76
2023-03-05T23:45:47.571Z,1.81
2023-03-05T23:50:48.752Z,1.78
2023-03-05T23:55:50.706Z,1.84
